createdAt,value
2023-01-29T00:00:15.475Z,101408.78
2023-01-29T00:01:47.980Z,101410.53
2023-01-29T00:03:19.894Z,101396.41
2023-01-29T00:04:51.594Z,101399.06
2023-01-29T00:06:23.771Z,101394.66
2023-01-29T00:07:57.109Z,101394.66
2023-01-29T00:09:29.158Z,101388.50
2023-01-29T00:11:07.689Z,101394.69
2023-01-29T00:12:39.731Z,101389.34
2023-01-29T00:14:11.774Z,101385.84
2023-01-29T00:15:43.621Z,101392.88
2023-01-29T00:17:15.431Z,101386.72
2023-01-29T00:18:47.198Z,101384.09
2023-01-29T00:20:19.444Z,101385.88
2023-01-29T00:21:51.315Z,101377.94
2023-01-29T00:23:23.411Z,101377.09
2023-01-29T00:24:55.195Z,101377.13
2023-01-29T00:26:27.675Z,101376.22
2023-01-29T00:27:59.369Z,101377.13
2023-01-29T00:29:31.038Z,101375.41
2023-01-29T00:31:10.662Z,101368.41
2023-01-29T00:32:42.546Z,101364.00
2023-01-29T00:34:14.278Z,101368.41
2023-01-29T00:35:45.996Z,101368.41
2023-01-29T00:37:17.763Z,101364.03
2023-01-29T00:38:58.914Z,101362.31
2023-01-29T00:40:50.624Z,101360.53
2023-01-29T00:42:40.819Z,101366.72
2023-01-29T00:44:31.820Z,101356.09
2023-01-29T00:46:03.608Z,101358.78
2023-01-29T00:47:36.594Z,101359.69
2023-01-29T00:49:09.305Z,101370.28
2023-01-29T00:50:41.017Z,101364.13
2023-01-29T00:52:24.609Z,101358.84
2023-01-29T00:53:58.386Z,101367.69
2023-01-29T00:55:30.087Z,101367.69
2023-01-29T00:57:02.659Z,101372.06
2023-01-29T00:58:34.493Z,101369.41
2023-01-29T01:00:09.074Z,101377.34
2023-01-29T01:01:59.699Z,101375.63
2023-01-29T01:03:35.217Z,101380.91
2023-01-29T01:05:10.411Z,101380.88
2023-01-29T01:06:42.736Z,101385.25
2023-01-29T01:08:33.328Z,101389.66
2023-01-29T01:10:24.276Z,101385.25
2023-01-29T01:11:56.108Z,101377.34
2023-01-29T01:13:28.108Z,101378.25
2023-01-29T01:14:59.843Z,101374.72
2023-01-29T01:16:32.009Z,101369.41
2023-01-29T01:18:04.323Z,101366.78
2023-01-29T01:19:36.289Z,101371.19
2023-01-29T01:21:08.664Z,101370.31
2023-01-29T01:22:40.844Z,101370.31
2023-01-29T01:24:13.215Z,101365.03
2023-01-29T01:25:45.132Z,101362.38
2023-01-29T01:27:19.506Z,101365.03
2023-01-29T01:28:52.058Z,101366.81
2023-01-29T01:30:24.648Z,101369.47
2023-01-29T01:31:56.723Z,101374.75
2023-01-29T01:33:29.105Z,101370.38
2023-01-29T01:35:00.783Z,101365.94
2023-01-29T01:36:32.488Z,101371.25
2023-01-29T01:38:04.223Z,101361.59
2023-01-29T01:39:35.963Z,101357.19
2023-01-29T01:41:07.617Z,101352.81
2023-01-29T01:42:43.344Z,101354.59
2023-01-29T01:45:10.445Z,101345.81
2023-01-29T01:46:42.424Z,101348.47
2023-01-29T01:48:23.702Z,101353.81
2023-01-29T01:50:00.129Z,101352.91
2023-01-29T01:51:35.040Z,101356.44
2023-01-29T01:53:10.987Z,101351.19
2023-01-29T01:54:43.236Z,101359.09
2023-01-29T01:56:23.472Z,101347.69
2023-01-29T01:58:05.290Z,101352.13
2023-01-29T01:59:40.372Z,101346.81
2023-01-29T02:01:12.890Z,101357.44
2023-01-29T02:03:05.488Z,101355.72
2023-01-29T02:05:06.900Z,101348.72
2023-01-29T02:06:59.446Z,101336.44
2023-01-29T02:09:24.541Z,101330.38
2023-01-29T02:10:56.486Z,101326.91
2023-01-29T02:12:31.263Z,101334.00
2023-01-29T02:14:03.665Z,101329.69
2023-01-29T02:15:35.350Z,101337.69
2023-01-29T02:17:09.815Z,101335.09
2023-01-29T02:18:41.553Z,101335.19
2023-01-29T02:20:24.298Z,101324.72
2023-01-29T02:22:41.886Z,101318.69
2023-01-29T02:24:43.147Z,101332.84
2023-01-29T02:26:44.226Z,101328.53
2023-01-29T02:28:49.137Z,101325.06
2023-01-29T02:30:33.428Z,101331.34
2023-01-29T02:32:54.522Z,101332.31
2023-01-29T02:35:23.732Z,101336.78
2023-01-29T02:37:04.211Z,101333.34
2023-01-29T02:39:03.832Z,101334.31
2023-01-29T02:40:57.484Z,101337.00
2023-01-29T02:42:40.032Z,101347.66
2023-01-29T02:44:20.619Z,101336.22
2023-01-29T02:46:07.518Z,101336.28
2023-01-29T02:48:01.388Z,101339.84
2023-01-29T02:49:52.898Z,101341.66
2023-01-29T02:51:34.341Z,101342.56
2023-01-29T02:53:05.928Z,101344.34
2023-01-29T02:54:52.827Z,101351.38
2023-01-29T02:56:32.627Z,101346.13
2023-01-29T02:58:30.774Z,101345.31
2023-01-29T03:00:09.264Z,101344.44
2023-01-29T03:01:48.512Z,101354.13
2023-01-29T03:03:28.988Z,101355.03
2023-01-29T03:05:04.648Z,101354.16
2023-01-29T03:06:41.421Z,101355.03
2023-01-29T03:08:18.387Z,101351.50
2023-01-29T03:09:54.191Z,101348.00
2023-01-29T03:11:34.483Z,101350.66
2023-01-29T03:13:14.724Z,101352.38
2023-01-29T03:15:10.397Z,101346.22
2023-01-29T03:16:53.461Z,101349.72
2023-01-29T03:18:30.783Z,101339.16
2023-01-29T03:20:08.987Z,101341.78
2023-01-29T03:22:01.973Z,101344.44
2023-01-29T03:23:55.430Z,101345.28
2023-01-29T03:25:46.620Z,101340.88
2023-01-29T03:27:43.971Z,101347.88
2023-01-29T03:29:34.419Z,101343.50
2023-01-29T03:31:28.481Z,101350.56
2023-01-29T03:33:09.202Z,101347.94
2023-01-29T03:34:46.723Z,101347.09
2023-01-29T03:36:27.088Z,101348.84
2023-01-29T03:37:59.669Z,101349.75
2023-01-29T03:39:31.899Z,101340.09
2023-01-29T03:41:14.218Z,101342.72
2023-01-29T03:43:18.557Z,101334.88
2023-01-29T03:45:00.735Z,101337.50
2023-01-29T03:46:52.705Z,101338.41
2023-01-29T03:48:36.769Z,101333.13
2023-01-29T03:50:28.609Z,101336.69
2023-01-29T03:52:05.424Z,101337.56
2023-01-29T03:53:51.569Z,101336.69
2023-01-29T03:55:42.498Z,101336.72
2023-01-29T03:57:33.579Z,101339.38
2023-01-29T03:59:30.736Z,101340.28
2023-01-29T04:01:29.003Z,101351.69
2023-01-29T04:03:13.508Z,101345.56
2023-01-29T04:04:48.714Z,101341.19
2023-01-29T04:06:24.152Z,101337.66
2023-01-29T04:08:08.472Z,101328.00
2023-01-29T04:09:47.064Z,101334.19
2023-01-29T04:11:22.345Z,101321.03
2023-01-29T04:12:59.794Z,101328.03
2023-01-29T04:14:32.684Z,101326.28
2023-01-29T04:16:07.982Z,101329.81
2023-01-29T04:17:56.083Z,101325.41
2023-01-29T04:19:40.555Z,101321.03
2023-01-29T04:21:13.744Z,101316.66
2023-01-29T04:22:48.432Z,101317.50
2023-01-29T04:24:21.317Z,101316.63
2023-01-29T04:26:28.453Z,101312.25
2023-01-29T04:28:18.479Z,101315.78
2023-01-29T04:29:53.317Z,101316.66
2023-01-29T04:31:33.179Z,101301.75
2023-01-29T04:33:45.244Z,101302.66
2023-01-29T04:35:39.808Z,101297.38
2023-01-29T04:37:19.974Z,101297.38
2023-01-29T04:39:08.643Z,101298.25
2023-01-29T04:41:07.822Z,101305.28
2023-01-29T04:43:02.022Z,101298.31
2023-01-29T04:44:40.498Z,101293.91
2023-01-29T04:46:18.311Z,101292.16
2023-01-29T04:48:17.668Z,101286.88
2023-01-29T04:49:58.348Z,101281.63
2023-01-29T04:51:47.889Z,101272.00
2023-01-29T04:53:33.724Z,101279.03
2023-01-29T04:55:30.020Z,101266.72
2023-01-29T04:57:12.426Z,101274.63
2023-01-29T04:58:49.858Z,101269.38
2023-01-29T05:00:28.855Z,101262.31
2023-01-29T05:02:02.628Z,101259.69
2023-01-29T05:03:37.880Z,101259.66
2023-01-29T05:05:10.890Z,101263.16
2023-01-29T05:06:43.682Z,101254.41
2023-01-29T05:08:20.798Z,101252.66
2023-01-29T05:09:53.510Z,101250.91
2023-01-29T05:11:25.664Z,101257.03
2023-01-29T05:13:03.498Z,101255.28
2023-01-29T05:14:35.867Z,101250.00
2023-01-29T05:16:20.366Z,101257.03
2023-01-29T05:17:53.952Z,101255.25
2023-01-29T05:19:26.641Z,101254.41
2023-01-29T05:21:03.280Z,101247.38
2023-01-29T05:22:39.505Z,101245.59
2023-01-29T05:24:15.880Z,101245.59
2023-01-29T05:25:49.045Z,101246.47
2023-01-29T05:27:46.571Z,101235.06
2023-01-29T05:29:18.351Z,101239.47
2023-01-29T05:30:52.828Z,101245.59
2023-01-29T05:32:24.966Z,101243.84
2023-01-29T05:33:56.680Z,101244.72
2023-01-29T05:35:28.728Z,101242.97
2023-01-29T05:37:00.410Z,101246.50
2023-01-29T05:38:32.076Z,101235.94
2023-01-29T05:40:03.987Z,101242.06
2023-01-29T05:41:36.033Z,101237.69
2023-01-29T05:43:25.180Z,101225.41
2023-01-29T05:44:56.883Z,101234.19
2023-01-29T05:46:28.670Z,101224.53
2023-01-29T05:48:00.721Z,101230.66
2023-01-29T05:49:32.490Z,101226.25
2023-01-29T05:51:04.957Z,101216.56
2023-01-29T05:52:36.655Z,101219.19
2023-01-29T05:54:08.340Z,101219.16
2023-01-29T05:55:40.090Z,101222.66
2023-01-29T05:57:11.796Z,101230.50
2023-01-29T05:58:43.501Z,101236.63
2023-01-29T06:00:16.049Z,101242.75
2023-01-29T06:01:47.948Z,101234.78
2023-01-29T06:03:19.927Z,101242.69
2023-01-29T06:04:52.761Z,101227.72
2023-01-29T06:06:24.554Z,101232.94
2023-01-29T06:07:56.336Z,101230.25
2023-01-29T06:09:28.016Z,101224.09
2023-01-29T06:10:59.767Z,101229.34
2023-01-29T06:12:31.613Z,101231.06
2023-01-29T06:14:03.363Z,101235.41
2023-01-29T06:15:35.059Z,101238.00
2023-01-29T06:17:06.761Z,101251.16
2023-01-29T06:18:39.327Z,101250.25
2023-01-29T06:20:11.516Z,101250.22
2023-01-29T06:21:43.218Z,101258.09
2023-01-29T06:23:14.919Z,101264.22
2023-01-29T06:24:46.679Z,101265.06
2023-01-29T06:26:18.405Z,101264.13
2023-01-29T06:27:53.009Z,101265.00
2023-01-29T06:29:24.680Z,101269.34
2023-01-29T06:31:20.029Z,101268.44
2023-01-29T06:32:58.848Z,101267.56
2023-01-29T06:34:30.581Z,101273.66
2023-01-29T06:36:04.584Z,101268.34
2023-01-29T06:37:36.599Z,101273.59
2023-01-29T06:39:08.282Z,101268.28
2023-01-29T06:40:40.336Z,101263.88
2023-01-29T06:42:12.052Z,101260.31
2023-01-29T06:43:47.953Z,101261.16
2023-01-29T06:45:19.747Z,101263.78
2023-01-29T06:46:51.479Z,101271.66
2023-01-29T06:48:24.667Z,101276.94
2023-01-29T06:49:56.353Z,101276.88
2023-01-29T06:51:28.123Z,101287.44
2023-01-29T06:52:59.824Z,101289.16
2023-01-29T06:54:31.487Z,101292.66
2023-01-29T06:56:04.632Z,101303.22
2023-01-29T06:57:36.330Z,101304.97
2023-01-29T06:59:08.042Z,101311.09
2023-01-29T07:00:39.752Z,101312.84
2023-01-29T07:02:11.554Z,101321.59
2023-01-29T07:03:43.685Z,101311.88
2023-01-29T07:05:15.351Z,101318.91
2023-01-29T07:06:47.039Z,101327.66
2023-01-29T07:08:19.315Z,101320.63
2023-01-29T07:09:51.275Z,101331.16
2023-01-29T07:11:23.069Z,101328.47
2023-01-29T07:12:55.103Z,101326.69
2023-01-29T07:14:26.923Z,101325.81
2023-01-29T07:16:03.529Z,101332.84
2023-01-29T07:17:35.277Z,101334.56
2023-01-29T07:19:07.018Z,101332.78
2023-01-29T07:20:40.761Z,101336.25
2023-01-29T07:22:12.484Z,101332.72
2023-01-29T07:23:44.152Z,101330.03
2023-01-29T07:25:15.830Z,101332.69
2023-01-29T07:26:47.540Z,101326.50
2023-01-29T07:28:20.663Z,101322.03
2023-01-29T07:29:52.358Z,101323.78
2023-01-29T07:31:24.140Z,101319.38
2023-01-29T07:32:56.116Z,101307.88
2023-01-29T07:34:27.797Z,101316.63
2023-01-29T07:35:59.685Z,101321.03
2023-01-29T07:37:31.733Z,101320.13
2023-01-29T07:39:03.542Z,101322.72
2023-01-29T07:40:35.674Z,101318.28
2023-01-29T07:42:07.387Z,101321.78
2023-01-29T07:43:39.457Z,101322.63
2023-01-29T07:45:11.803Z,101318.19
2023-01-29T07:46:43.725Z,101319.91
2023-01-29T07:48:15.423Z,101318.97
2023-01-29T07:49:47.136Z,101314.56
2023-01-29T07:51:18.831Z,101318.91
2023-01-29T07:52:50.813Z,101310.94
2023-01-29T07:54:22.667Z,101302.09
2023-01-29T07:55:54.667Z,101289.69
2023-01-29T07:57:26.362Z,101287.88
2023-01-29T07:58:58.083Z,101285.19
2023-01-29T08:00:31.603Z,101280.78
2023-01-29T08:02:03.371Z,101284.25
2023-01-29T08:03:35.901Z,101288.56
2023-01-29T08:05:08.244Z,101277.03
2023-01-29T08:06:39.923Z,101280.50
2023-01-29T08:08:12.172Z,101276.03
2023-01-29T08:09:43.916Z,101266.28
2023-01-29T08:11:15.614Z,101266.22
2023-01-29T08:12:48.129Z,101267.88
2023-01-29T08:14:19.979Z,101261.66
2023-01-29T08:15:51.729Z,101262.47
2023-01-29T08:17:23.502Z,101250.09
2023-01-29T08:18:55.243Z,101251.78
2023-01-29T08:20:27.335Z,101240.28
2023-01-29T08:21:59.105Z,101242.00
2023-01-29T08:23:30.976Z,101247.25
2023-01-29T08:25:08.323Z,101242.78
2023-01-29T08:26:40.473Z,101250.66
2023-01-29T08:28:12.547Z,101242.66
2023-01-29T08:29:44.454Z,101240.91
2023-01-29T08:31:17.679Z,101237.31
2023-01-29T08:32:49.448Z,101238.13
2023-01-29T08:34:21.387Z,101239.03
2023-01-29T08:35:53.539Z,101247.78
2023-01-29T08:37:25.301Z,101246.88
2023-01-29T08:38:57.122Z,101243.31
2023-01-29T08:40:31.997Z,101245.03
2023-01-29T08:42:04.084Z,101254.69
2023-01-29T08:43:39.017Z,101262.63
2023-01-29T08:45:11.302Z,101259.06
2023-01-29T08:46:43.072Z,101261.72
2023-01-29T08:48:14.831Z,101259.94
2023-01-29T08:49:47.383Z,101250.22
2023-01-29T08:51:19.215Z,101259.88
2023-01-29T08:52:51.102Z,101257.16
2023-01-29T08:54:23.691Z,101255.34
2023-01-29T08:55:55.402Z,101272.09
2023-01-29T08:57:27.141Z,101263.22
2023-01-29T08:58:59.270Z,101266.69
2023-01-29T09:00:31.852Z,101262.25
2023-01-29T09:02:03.604Z,101254.25
2023-01-29T09:03:36.263Z,101250.63
2023-01-29T09:05:08.633Z,101251.41
2023-01-29T09:06:40.394Z,101247.84
2023-01-29T09:08:12.732Z,101237.19
2023-01-29T09:09:44.562Z,101236.22
2023-01-29T09:11:16.308Z,101246.69
2023-01-29T09:12:48.136Z,101243.09
2023-01-29T09:14:20.915Z,101255.34
2023-01-29T09:15:52.886Z,101258.75
2023-01-29T09:17:24.715Z,101250.78
2023-01-29T09:18:56.502Z,101254.19
2023-01-29T09:20:28.210Z,101260.28
2023-01-29T09:21:59.974Z,101245.19
2023-01-29T09:23:32.450Z,101243.34
2023-01-29T09:25:04.528Z,101233.50
2023-01-29T09:26:36.472Z,101226.34
2023-01-29T09:28:08.246Z,101236.84
2023-01-29T09:29:40.005Z,101238.56
2023-01-29T09:31:11.871Z,101250.00
2023-01-29T09:32:53.072Z,101252.59
2023-01-29T09:34:25.565Z,101248.16
2023-01-29T09:35:57.321Z,101257.78
2023-01-29T09:37:29.059Z,101249.84
2023-01-29T09:39:00.794Z,101245.38
2023-01-29T09:40:51.805Z,101250.69
2023-01-29T09:42:42.232Z,101248.03
2023-01-29T09:44:24.227Z,101243.50
2023-01-29T09:46:04.703Z,101236.38
2023-01-29T09:47:37.412Z,101231.78
2023-01-29T09:49:09.103Z,101237.88
2023-01-29T09:50:46.592Z,101227.19
2023-01-29T09:52:23.545Z,101223.66
2023-01-29T09:54:14.656Z,101216.44
2023-01-29T09:55:52.923Z,101209.31
2023-01-29T09:57:31.879Z,101206.63
2023-01-29T09:59:03.859Z,101203.88
2023-01-29T10:00:39.061Z,101210.97
2023-01-29T10:02:27.380Z,101211.91
2023-01-29T10:04:08.126Z,101206.53
2023-01-29T10:06:04.800Z,101207.34
2023-01-29T10:08:10.060Z,101208.31
2023-01-29T10:09:47.953Z,101209.13
2023-01-29T10:11:42.086Z,101207.38
2023-01-29T10:13:17.343Z,101195.00
2023-01-29T10:15:21.342Z,101205.59
2023-01-29T10:16:59.099Z,101204.66
2023-01-29T10:18:59.304Z,101204.69
2023-01-29T10:20:43.551Z,101210.75
2023-01-29T10:22:44.892Z,101203.56
2023-01-29T10:24:50.724Z,101204.34
2023-01-29T10:26:26.442Z,101205.06
2023-01-29T10:27:59.671Z,101208.53
2023-01-29T10:29:34.107Z,101201.41
2023-01-29T10:31:17.371Z,101211.09
2023-01-29T10:32:50.599Z,101205.72
2023-01-29T10:34:45.582Z,101198.69
2023-01-29T10:36:22.630Z,101203.13
2023-01-29T10:37:55.122Z,101200.53
2023-01-29T10:39:29.838Z,101196.13
2023-01-29T10:41:14.751Z,101203.28
2023-01-29T10:42:56.658Z,101197.09
2023-01-29T10:44:56.926Z,101183.94
2023-01-29T10:46:50.509Z,101178.75
2023-01-29T10:48:52.689Z,101183.28
2023-01-29T10:50:42.581Z,101169.13
2023-01-29T10:52:33.116Z,101163.84
2023-01-29T10:54:20.702Z,101154.13
2023-01-29T10:56:14.133Z,101141.69
2023-01-29T10:58:05.609Z,101145.28
2023-01-29T10:59:55.945Z,101145.25
2023-01-29T11:01:27.766Z,101141.59
2023-01-29T11:03:26.296Z,101135.34
2023-01-29T11:04:58.961Z,101137.84
2023-01-29T11:06:35.888Z,101139.56
2023-01-29T11:08:13.836Z,101132.38
2023-01-29T11:10:03.000Z,101130.56
2023-01-29T11:11:43.292Z,101124.16
2023-01-29T11:13:16.469Z,101120.53
2023-01-29T11:14:57.248Z,101115.16
2023-01-29T11:16:30.468Z,101118.56
2023-01-29T11:18:13.353Z,101112.25
2023-01-29T11:19:47.223Z,101117.44
2023-01-29T11:21:19.033Z,101111.13
2023-01-29T11:22:54.111Z,101105.75
2023-01-29T11:24:26.827Z,101109.16
2023-01-29T11:26:00.690Z,101104.69
2023-01-29T11:27:35.615Z,101096.66
2023-01-29T11:29:30.248Z,101100.16
2023-01-29T11:31:02.615Z,101092.09
2023-01-29T11:32:35.364Z,101090.22
2023-01-29T11:34:37.077Z,101079.59
2023-01-29T11:36:41.411Z,101074.28
2023-01-29T11:38:16.011Z,101079.41
2023-01-29T11:39:47.752Z,101073.25
2023-01-29T11:41:22.602Z,101077.69
2023-01-29T11:42:54.811Z,101087.44
2023-01-29T11:44:42.921Z,101077.78
2023-01-29T11:46:16.210Z,101082.13
2023-01-29T11:47:54.622Z,101081.28
2023-01-29T11:49:33.812Z,101083.09
2023-01-29T11:51:06.555Z,101084.72
2023-01-29T11:52:43.040Z,101098.06
2023-01-29T11:54:19.791Z,101094.59
2023-01-29T11:55:51.920Z,101083.97
2023-01-29T11:57:31.442Z,101076.91
2023-01-29T11:59:06.418Z,101075.97
2023-01-29T12:00:41.334Z,101066.22
2023-01-29T12:02:34.287Z,101068.03
2023-01-29T12:04:21.814Z,101059.09
2023-01-29T12:05:57.532Z,101049.22
2023-01-29T12:07:30.668Z,101046.56
2023-01-29T12:09:10.809Z,101049.06
2023-01-29T12:10:43.321Z,101048.13
2023-01-29T12:12:29.155Z,101047.31
2023-01-29T12:14:03.475Z,101047.06
2023-01-29T12:15:36.803Z,101036.34
2023-01-29T12:17:21.137Z,101035.38
2023-01-29T12:19:04.895Z,101031.69
2023-01-29T12:20:46.969Z,101015.63
2023-01-29T12:23:02.704Z,101002.28
2023-01-29T12:24:43.390Z,101002.94
2023-01-29T12:26:19.599Z,101016.97
2023-01-29T12:28:19.303Z,101009.81
2023-01-29T12:30:13.151Z,101006.13
2023-01-29T12:31:56.719Z,101004.22
2023-01-29T12:33:52.872Z,101000.63
2023-01-29T12:35:42.286Z,101004.13
2023-01-29T12:37:22.586Z,100994.25
2023-01-29T12:38:56.119Z,100991.47
2023-01-29T12:40:33.058Z,100989.75
2023-01-29T12:42:19.648Z,100996.81
2023-01-29T12:44:12.139Z,101002.06
2023-01-29T12:45:47.186Z,100993.09
2023-01-29T12:47:36.203Z,100995.06
2023-01-29T12:49:16.588Z,100994.13
2023-01-29T12:50:50.048Z,100995.00
2023-01-29T12:52:34.092Z,100989.69
2023-01-29T12:54:10.431Z,100985.31
2023-01-29T12:55:48.205Z,100979.97
2023-01-29T12:57:25.044Z,100981.72
2023-01-29T12:59:00.693Z,100983.41
2023-01-29T13:00:35.758Z,100993.97
2023-01-29T13:03:03.468Z,100989.59
2023-01-29T13:04:51.333Z,100985.88
2023-01-29T13:06:30.924Z,100986.72
2023-01-29T13:08:14.533Z,100986.72
2023-01-29T13:09:56.047Z,100985.66
2023-01-29T13:11:42.549Z,100983.00
2023-01-29T13:13:23.586Z,100970.47
2023-01-29T13:14:59.402Z,100957.16
2023-01-29T13:16:38.740Z,100965.09
2023-01-29T13:18:33.532Z,100957.16
2023-01-29T13:20:13.127Z,100959.69
2023-01-29T13:21:45.849Z,100959.59
2023-01-29T13:23:21.833Z,100961.41
2023-01-29T13:25:04.104Z,100958.72
2023-01-29T13:26:37.343Z,100956.91
2023-01-29T13:28:19.055Z,100949.91
2023-01-29T13:29:51.452Z,100957.81
2023-01-29T13:31:32.612Z,100959.69
2023-01-29T13:33:09.866Z,100951.63
2023-01-29T13:34:48.278Z,100957.03
2023-01-29T13:36:29.636Z,100946.38
2023-01-29T13:38:01.277Z,100948.22
2023-01-29T13:39:35.289Z,100962.22
2023-01-29T13:41:08.871Z,100966.69
2023-01-29T13:42:53.498Z,100957.03
2023-01-29T13:44:29.727Z,100956.94
2023-01-29T13:46:09.945Z,100955.25
2023-01-29T13:47:41.758Z,100964.06
2023-01-29T13:49:46.112Z,100964.13
2023-01-29T13:51:22.465Z,100965.75
2023-01-29T13:53:02.337Z,100962.25
2023-01-29T13:54:34.387Z,100959.56
2023-01-29T13:56:33.812Z,100955.25
2023-01-29T13:58:31.386Z,100954.50
2023-01-29T14:00:05.084Z,100943.75
2023-01-29T14:01:48.905Z,100947.47
2023-01-29T14:03:56.128Z,100943.06
2023-01-29T14:05:31.752Z,100947.53
2023-01-29T14:07:40.987Z,100948.63
2023-01-29T14:09:37.725Z,100941.59
2023-01-29T14:11:15.590Z,100938.94
2023-01-29T14:12:51.006Z,100943.41
2023-01-29T14:14:48.100Z,100949.81
2023-01-29T14:16:19.773Z,100948.81
2023-01-29T14:18:14.706Z,100945.53
2023-01-29T14:19:51.162Z,100940.19
2023-01-29T14:21:28.399Z,100935.00
2023-01-29T14:23:01.973Z,100935.00
2023-01-29T14:24:36.603Z,100930.66
2023-01-29T14:26:26.640Z,100929.06
2023-01-29T14:28:01.927Z,100931.72
2023-01-29T14:29:41.387Z,100925.59
2023-01-29T14:31:13.282Z,100928.19
2023-01-29T14:32:50.191Z,100930.09
2023-01-29T14:34:29.559Z,100929.25
2023-01-29T14:36:06.272Z,100933.69
2023-01-29T14:37:41.880Z,100935.50
2023-01-29T14:39:24.201Z,100939.13
2023-01-29T14:41:15.853Z,100938.28
2023-01-29T14:43:20.995Z,100941.91
2023-01-29T14:44:59.272Z,100940.09
2023-01-29T14:46:33.801Z,100942.84
2023-01-29T14:48:11.916Z,100947.28
2023-01-29T14:49:53.915Z,100943.91
2023-01-29T14:51:32.276Z,100941.38
2023-01-29T14:53:30.108Z,100945.91
2023-01-29T14:55:07.011Z,100942.50
2023-01-29T14:56:58.690Z,100932.97
2023-01-29T14:58:36.720Z,100932.97
2023-01-29T15:00:26.944Z,100925.13
2023-01-29T15:02:05.559Z,100935.72
2023-01-29T15:03:44.871Z,100934.03
2023-01-29T15:05:28.990Z,100935.00
2023-01-29T15:07:14.616Z,100937.75
2023-01-29T15:08:58.086Z,100938.72
2023-01-29T15:10:40.161Z,100936.16
2023-01-29T15:12:50.768Z,100928.34
2023-01-29T15:14:30.983Z,100933.59
2023-01-29T15:16:11.151Z,100922.28
2023-01-29T15:18:07.582Z,100912.72
2023-01-29T15:19:48.196Z,100917.16
2023-01-29T15:21:19.927Z,100910.16
2023-01-29T15:22:51.687Z,100909.41
2023-01-29T15:24:23.387Z,100906.00
2023-01-29T15:25:58.779Z,100907.03
2023-01-29T15:27:31.131Z,100907.22
2023-01-29T15:29:04.876Z,100901.13
2023-01-29T15:30:37.863Z,100907.63
2023-01-29T15:32:17.174Z,100909.63
2023-01-29T15:33:53.693Z,100911.53
2023-01-29T15:35:37.555Z,100911.78
2023-01-29T15:37:32.243Z,100903.31
2023-01-29T15:39:13.052Z,100904.34
2023-01-29T15:40:58.661Z,100899.28
2023-01-29T15:42:47.890Z,100902.16
2023-01-29T15:44:22.783Z,100904.88
2023-01-29T15:46:01.739Z,100900.69
2023-01-29T15:47:33.967Z,100897.19
2023-01-29T15:49:08.717Z,100900.84
2023-01-29T15:50:42.553Z,100894.84
2023-01-29T15:52:22.877Z,100901.88
2023-01-29T15:53:56.921Z,100903.75
2023-01-29T15:55:30.944Z,100895.91
2023-01-29T15:57:03.688Z,100895.91
2023-01-29T15:58:35.466Z,100891.56
2023-01-29T16:00:22.739Z,100886.38
2023-01-29T16:01:54.568Z,100888.03
2023-01-29T16:03:30.915Z,100886.34
2023-01-29T16:05:34.055Z,100887.31
2023-01-29T16:07:10.906Z,100881.94
2023-01-29T16:08:48.320Z,100881.09
2023-01-29T16:10:25.799Z,100875.84
2023-01-29T16:11:59.347Z,100874.97
2023-01-29T16:13:34.121Z,100874.16
2023-01-29T16:15:06.969Z,100880.28
2023-01-29T16:16:38.773Z,100875.88
2023-01-29T16:18:28.576Z,100875.97
2023-01-29T16:20:03.076Z,100874.09
2023-01-29T16:21:43.593Z,100873.28
2023-01-29T16:23:24.752Z,100869.78
2023-01-29T16:24:58.015Z,100876.78
2023-01-29T16:26:36.537Z,100868.84
2023-01-29T16:28:11.140Z,100868.84
2023-01-29T16:29:43.192Z,100862.69
2023-01-29T16:31:23.784Z,100852.97
2023-01-29T16:33:02.496Z,100860.91
2023-01-29T16:34:42.613Z,100851.25
2023-01-29T16:36:18.789Z,100852.97
2023-01-29T16:37:51.638Z,100854.75
2023-01-29T16:39:27.874Z,100851.25
2023-01-29T16:41:16.535Z,100842.50
2023-01-29T16:42:49.140Z,100847.72
2023-01-29T16:44:20.989Z,100847.66
2023-01-29T16:46:28.342Z,100851.31
2023-01-29T16:48:26.043Z,100840.72
2023-01-29T16:50:17.542Z,100846.81
2023-01-29T16:51:49.286Z,100844.16
2023-01-29T16:53:24.660Z,100841.50
2023-01-29T16:55:23.084Z,100844.25
2023-01-29T16:57:00.534Z,100845.06
2023-01-29T16:58:32.264Z,100839.78
2023-01-29T17:00:08.015Z,100839.84
2023-01-29T17:01:39.843Z,100841.56
2023-01-29T17:03:14.808Z,100837.22
2023-01-29T17:04:47.257Z,100836.34
2023-01-29T17:06:23.227Z,100842.50
2023-01-29T17:07:59.794Z,100841.66
2023-01-29T17:09:36.366Z,100830.19
2023-01-29T17:11:08.978Z,100841.66
2023-01-29T17:12:41.079Z,100840.81
2023-01-29T17:14:18.812Z,100848.81
2023-01-29T17:15:50.659Z,100846.13
2023-01-29T17:17:29.427Z,100844.44
2023-01-29T17:19:01.466Z,100843.47
2023-01-29T17:20:33.217Z,100839.94
2023-01-29T17:22:07.815Z,100842.59
2023-01-29T17:23:39.941Z,100830.28
2023-01-29T17:25:15.644Z,100833.84
2023-01-29T17:26:47.864Z,100832.94
2023-01-29T17:28:19.662Z,100836.38
2023-01-29T17:29:52.719Z,100835.50
2023-01-29T17:31:25.351Z,100831.06
2023-01-29T17:32:57.227Z,100831.06
2023-01-29T17:34:29.092Z,100832.84
2023-01-29T17:36:00.897Z,100839.88
2023-01-29T17:37:32.766Z,100836.28
2023-01-29T17:39:15.121Z,100830.13
2023-01-29T17:41:04.489Z,100825.75
2023-01-29T17:42:36.503Z,100825.59
2023-01-29T17:44:08.413Z,100830.91
2023-01-29T17:45:40.266Z,100834.47
2023-01-29T17:47:15.957Z,100829.25
2023-01-29T17:48:49.330Z,100834.47
2023-01-29T17:50:31.775Z,100820.38
2023-01-29T17:52:03.651Z,100824.81
2023-01-29T17:53:45.329Z,100818.63
2023-01-29T17:55:18.212Z,100823.97
2023-01-29T17:56:51.069Z,100824.81
2023-01-29T17:58:26.269Z,100814.31
2023-01-29T17:59:57.980Z,100816.06
2023-01-29T18:01:29.780Z,100823.19
2023-01-29T18:03:02.516Z,100816.16
2023-01-29T18:04:34.263Z,100824.97
2023-01-29T18:06:09.619Z,100810.00
2023-01-29T18:07:43.556Z,100814.41
2023-01-29T18:09:18.881Z,100814.41
2023-01-29T18:10:50.585Z,100811.81
2023-01-29T18:12:22.360Z,100815.38
2023-01-29T18:13:55.251Z,100804.78
2023-01-29T18:15:26.972Z,100809.28
2023-01-29T18:16:59.520Z,100808.41
2023-01-29T18:18:31.292Z,100813.72
2023-01-29T18:20:11.007Z,100807.56
2023-01-29T18:21:42.713Z,100804.03
2023-01-29T18:23:15.015Z,100802.31
2023-01-29T18:24:46.730Z,100798.78
2023-01-29T18:26:18.584Z,100797.91
2023-01-29T18:27:50.342Z,100787.41
2023-01-29T18:29:22.165Z,100782.09
2023-01-29T18:30:53.939Z,100781.22
2023-01-29T18:32:25.790Z,100782.19
2023-01-29T18:33:57.687Z,100785.66
2023-01-29T18:35:30.229Z,100780.38
2023-01-29T18:37:01.922Z,100774.28
2023-01-29T18:38:33.627Z,100776.06
2023-01-29T18:40:06.068Z,100775.25
2023-01-29T18:41:37.742Z,100783.16
2023-01-29T18:43:09.673Z,100778.72
2023-01-29T18:44:41.385Z,100772.50